RYR2PK EDDN-LIBD
Flight info
| Callsign | RYR2PK |
|---|---|
| Flight time | 1h 39m |
| Altitude | 37000 |
| Route | RODIS1C/10 RODIS L604 LAMSI DCT RADLY DCT AIOSA DCT BANAV |
| Aircraft | B738/M-SDE3FGILRWY/SB1 |
Departure
| Time | 2026-04-29 10:52 |
|---|---|
| Airport | Nuremberg Airport (EDDN) |
Arrival
| Time | 2026-04-29 12:31 |
|---|---|
| Airport | Bari Karol Wojtyła International Airport (LIBD) |
| Time | Latitude | Longitude | Altitude | Speed | Heading |
|---|---|---|---|---|---|
| 2026-04-29 10:23 | 49.49515 | 11.07853 | 1025 ft | 0 kts | 188° |
| 2026-04-29 10:43 | 49.49518 | 11.07854 | 1022 ft | 3 kts | 188° |
| 2026-04-29 10:43 | 49.49541 | 11.07859 | 1025 ft | 2 kts | 188° |
| 2026-04-29 10:43 | 49.49556 | 11.07864 | 1024 ft | 4 kts | 210° |
| 2026-04-29 10:44 | 49.49571 | 11.07891 | 1026 ft | 4 kts | 264° |
| 2026-04-29 10:44 | 49.49570 | 11.07922 | 1026 ft | 0 kts | 278° |
| 2026-04-29 10:47 | 49.49573 | 11.07898 | 1025 ft | 5 kts | 279° |
| 2026-04-29 10:47 | 49.49581 | 11.07815 | 1026 ft | 10 kts | 277° |
| 2026-04-29 10:47 | 49.49594 | 11.07688 | 1024 ft | 14 kts | 279° |
| 2026-04-29 10:47 | 49.49610 | 11.07528 | 1024 ft | 16 kts | 277° |
| 2026-04-29 10:48 | 49.49626 | 11.07361 | 1024 ft | 15 kts | 279° |
| 2026-04-29 10:48 | 49.49647 | 11.07227 | 1024 ft | 10 kts | 312° |
| 2026-04-29 10:48 | 49.49686 | 11.07228 | 1022 ft | 7 kts | 11° |
| 2026-04-29 10:48 | 49.49735 | 11.07193 | 1021 ft | 10 kts | 300° |
| 2026-04-29 10:49 | 49.49751 | 11.07064 | 1020 ft | 14 kts | 278° |
| 2026-04-29 10:49 | 49.49767 | 11.06892 | 1019 ft | 18 kts | 278° |
| 2026-04-29 10:49 | 49.49788 | 11.06688 | 1019 ft | 20 kts | 279° |
| 2026-04-29 10:49 | 49.49809 | 11.06465 | 1018 ft | 22 kts | 280° |
| 2026-04-29 10:50 | 49.49834 | 11.06225 | 1018 ft | 22 kts | 278° |
| 2026-04-29 10:50 | 49.49868 | 11.06005 | 1020 ft | 19 kts | 312° |
| 2026-04-29 10:50 | 49.49976 | 11.05932 | 1024 ft | 15 kts | 350° |
| 2026-04-29 10:50 | 49.50045 | 11.05985 | 1027 ft | 4 kts | 75° |
| 2026-04-29 10:51 | 49.50044 | 11.06040 | 1025 ft | 11 kts | 97° |
| 2026-04-29 10:51 | 49.50001 | 11.06473 | 1023 ft | 77 kts | 99° |
| 2026-04-29 10:51 | 49.49888 | 11.07624 | 1024 ft | 138 kts | 97° |
| 2026-04-29 10:51 | 49.49709 | 11.09216 | 1481 ft | 153 kts | 95° |
| 2026-04-29 10:52 | 49.49549 | 11.10901 | 2244 ft | 163 kts | 95° |
| 2026-04-29 10:52 | 49.49403 | 11.12581 | 3161 ft | 161 kts | 95° |
| 2026-04-29 10:52 | 49.49242 | 11.14367 | 3750 ft | 176 kts | 96° |
| 2026-04-29 10:52 | 49.49056 | 11.16339 | 4128 ft | 198 kts | 97° |
| 2026-04-29 10:53 | 49.48844 | 11.18555 | 4328 ft | 221 kts | 97° |
| 2026-04-29 10:53 | 49.48589 | 11.21002 | 4660 ft | 243 kts | 97° |
| 2026-04-29 10:53 | 49.48321 | 11.23613 | 5413 ft | 249 kts | 97° |
| 2026-04-29 10:53 | 49.48082 | 11.26265 | 6295 ft | 253 kts | 93° |
| 2026-04-29 10:54 | 49.48040 | 11.28984 | 7092 ft | 255 kts | 89° |
| 2026-04-29 10:54 | 49.48046 | 11.31762 | 7777 ft | 261 kts | 88° |
| 2026-04-29 10:54 | 49.48049 | 11.34567 | 8575 ft | 265 kts | 88° |
| 2026-04-29 10:54 | 49.48039 | 11.37428 | 9306 ft | 273 kts | 88° |
| 2026-04-29 10:55 | 49.48024 | 11.40380 | 10024 ft | 279 kts | 88° |
| 2026-04-29 10:55 | 49.48002 | 11.43399 | 10595 ft | 289 kts | 88° |
| 2026-04-29 10:55 | 49.47974 | 11.46614 | 10777 ft | 312 kts | 87° |
| 2026-04-29 10:55 | 49.47943 | 11.50032 | 11217 ft | 325 kts | 88° |
| 2026-04-29 10:56 | 49.47908 | 11.53540 | 11853 ft | 331 kts | 88° |
| 2026-04-29 10:56 | 49.47868 | 11.57098 | 12570 ft | 335 kts | 87° |
| 2026-04-29 10:56 | 49.47827 | 11.60702 | 13297 ft | 340 kts | 88° |
| 2026-04-29 10:56 | 49.47785 | 11.64371 | 14018 ft | 346 kts | 88° |
| 2026-04-29 10:57 | 49.47744 | 11.68090 | 14661 ft | 350 kts | 87° |
| 2026-04-29 10:57 | 49.47700 | 11.71856 | 15395 ft | 354 kts | 88° |
| 2026-04-29 10:57 | 49.47653 | 11.75667 | 16085 ft | 359 kts | 88° |
| 2026-04-29 10:57 | 49.47604 | 11.79516 | 16808 ft | 362 kts | 88° |
| 2026-04-29 10:58 | 49.47555 | 11.83413 | 17530 ft | 366 kts | 88° |
| 2026-04-29 10:58 | 49.47504 | 11.87346 | 18246 ft | 370 kts | 88° |
| 2026-04-29 10:58 | 49.47451 | 11.91326 | 18909 ft | 374 kts | 88° |
| 2026-04-29 10:58 | 49.47325 | 11.95346 | 19465 ft | 381 kts | 97° |
| 2026-04-29 10:59 | 49.46560 | 11.99279 | 20064 ft | 387 kts | 108° |
| 2026-04-29 10:59 | 49.45621 | 12.03178 | 20650 ft | 391 kts | 108° |
| 2026-04-29 10:59 | 49.44665 | 12.07111 | 21191 ft | 395 kts | 108° |
| 2026-04-29 10:59 | 49.43709 | 12.11087 | 21782 ft | 399 kts | 108° |
| 2026-04-29 11:00 | 49.42755 | 12.15107 | 22364 ft | 402 kts | 108° |
| 2026-04-29 11:00 | 49.41798 | 12.19182 | 22839 ft | 408 kts | 107° |
| 2026-04-29 11:00 | 49.40834 | 12.23304 | 23343 ft | 413 kts | 107° |
| 2026-04-29 11:00 | 49.39861 | 12.27466 | 23937 ft | 415 kts | 108° |
| 2026-04-29 11:01 | 49.38884 | 12.31643 | 24422 ft | 418 kts | 108° |
| 2026-04-29 11:01 | 49.37897 | 12.35860 | 24847 ft | 422 kts | 108° |
| 2026-04-29 11:01 | 49.36900 | 12.40111 | 25284 ft | 425 kts | 108° |
| 2026-04-29 11:01 | 49.35894 | 12.44385 | 25743 ft | 428 kts | 108° |
| 2026-04-29 11:02 | 49.34879 | 12.48688 | 26172 ft | 431 kts | 109° |
| 2026-04-29 11:02 | 49.33639 | 12.52892 | 26545 ft | 436 kts | 119° |
| 2026-04-29 11:02 | 49.31940 | 12.56764 | 26996 ft | 440 kts | 129° |
| 2026-04-29 11:02 | 49.29853 | 12.60215 | 27376 ft | 443 kts | 135° |
| 2026-04-29 11:03 | 49.27655 | 12.63546 | 27758 ft | 446 kts | 136° |
| 2026-04-29 11:03 | 49.25429 | 12.66893 | 28125 ft | 449 kts | 136° |
| 2026-04-29 11:03 | 49.23207 | 12.70268 | 28518 ft | 452 kts | 136° |
| 2026-04-29 11:03 | 49.20977 | 12.73697 | 28891 ft | 455 kts | 135° |
| 2026-04-29 11:04 | 49.18745 | 12.77153 | 29263 ft | 458 kts | 135° |
| 2026-04-29 11:04 | 49.16499 | 12.80631 | 29600 ft | 461 kts | 136° |
| 2026-04-29 11:04 | 49.14237 | 12.84122 | 29946 ft | 464 kts | 136° |
| 2026-04-29 11:04 | 49.11954 | 12.87633 | 30290 ft | 467 kts | 136° |
| 2026-04-29 11:05 | 49.09660 | 12.91154 | 30586 ft | 469 kts | 136° |
| 2026-04-29 11:05 | 49.07349 | 12.94696 | 30867 ft | 472 kts | 136° |
| 2026-04-29 11:05 | 49.05030 | 12.98247 | 31139 ft | 474 kts | 136° |
| 2026-04-29 11:05 | 49.02693 | 13.01822 | 31404 ft | 477 kts | 136° |
| 2026-04-29 11:06 | 49.00348 | 13.05406 | 31675 ft | 479 kts | 136° |
| 2026-04-29 11:06 | 48.97995 | 13.08997 | 31996 ft | 479 kts | 136° |
| 2026-04-29 11:06 | 48.95641 | 13.12585 | 32380 ft | 478 kts | 136° |
| 2026-04-29 11:06 | 48.93292 | 13.16162 | 32756 ft | 478 kts | 136° |
| 2026-04-29 11:07 | 48.90943 | 13.19733 | 33089 ft | 478 kts | 136° |
| 2026-04-29 11:07 | 48.88591 | 13.23302 | 33407 ft | 478 kts | 137° |
| 2026-04-29 11:07 | 48.86232 | 13.26873 | 33738 ft | 479 kts | 137° |
| 2026-04-29 11:07 | 48.83871 | 13.30434 | 34029 ft | 479 kts | 137° |
| 2026-04-29 11:08 | 48.81504 | 13.33999 | 34347 ft | 479 kts | 137° |
| 2026-04-29 11:08 | 48.79174 | 13.37504 | 34646 ft | 478 kts | 137° |
| 2026-04-29 11:08 | 48.76815 | 13.41051 | 34918 ft | 478 kts | 137° |
| 2026-04-29 11:08 | 48.74458 | 13.44590 | 35180 ft | 478 kts | 137° |
| 2026-04-29 11:09 | 48.72095 | 13.48135 | 35430 ft | 477 kts | 137° |
| 2026-04-29 11:09 | 48.69736 | 13.51670 | 35683 ft | 478 kts | 137° |
| 2026-04-29 11:09 | 48.67370 | 13.55206 | 35948 ft | 477 kts | 137° |
| 2026-04-29 11:09 | 48.64898 | 13.58530 | 36228 ft | 475 kts | 145° |
| 2026-04-29 11:10 | 48.62138 | 13.61228 | 36434 ft | 472 kts | 153° |
| 2026-04-29 11:10 | 48.59265 | 13.63637 | 36660 ft | 472 kts | 154° |
| 2026-04-29 11:10 | 48.56375 | 13.66007 | 36901 ft | 472 kts | 154° |
| 2026-04-29 11:10 | 48.53490 | 13.68369 | 37163 ft | 472 kts | 154° |
| 2026-04-29 11:11 | 48.50606 | 13.70743 | 37208 ft | 475 kts | 154° |
| 2026-04-29 11:11 | 48.44798 | 13.75573 | 37202 ft | 477 kts | 154° |
| 2026-04-29 11:12 | 48.39017 | 13.80417 | 37199 ft | 473 kts | 154° |
| 2026-04-29 11:12 | 48.33289 | 13.85214 | 37217 ft | 470 kts | 154° |
| 2026-04-29 11:13 | 48.27578 | 13.89980 | 37214 ft | 469 kts | 154° |
| 2026-04-29 11:13 | 48.21871 | 13.94728 | 37188 ft | 469 kts | 154° |
| 2026-04-29 11:14 | 48.16169 | 13.99459 | 37210 ft | 469 kts | 154° |
| 2026-04-29 11:14 | 48.10459 | 14.04184 | 37220 ft | 469 kts | 154° |
| 2026-04-29 11:15 | 48.04729 | 14.08913 | 37239 ft | 471 kts | 154° |
| 2026-04-29 11:15 | 47.99013 | 14.13620 | 37233 ft | 473 kts | 154° |
| 2026-04-29 11:16 | 47.93229 | 14.18370 | 37224 ft | 476 kts | 154° |
| 2026-04-29 11:16 | 47.87417 | 14.23132 | 37213 ft | 478 kts | 154° |
| 2026-04-29 11:17 | 47.81580 | 14.27902 | 37210 ft | 479 kts | 154° |
| 2026-04-29 11:17 | 47.75733 | 14.32668 | 37217 ft | 480 kts | 154° |
| 2026-04-29 11:18 | 47.69880 | 14.37427 | 37196 ft | 479 kts | 155° |
| 2026-04-29 11:18 | 47.64043 | 14.42159 | 37204 ft | 478 kts | 155° |
| 2026-04-29 11:19 | 47.58225 | 14.46864 | 37196 ft | 475 kts | 155° |
| 2026-04-29 11:19 | 47.52427 | 14.51542 | 37193 ft | 474 kts | 155° |
| 2026-04-29 11:20 | 47.46650 | 14.56191 | 37201 ft | 471 kts | 155° |
| 2026-04-29 11:20 | 47.40900 | 14.60806 | 37199 ft | 470 kts | 155° |
| 2026-04-29 11:21 | 47.35167 | 14.65395 | 37210 ft | 468 kts | 155° |
| 2026-04-29 11:21 | 47.29426 | 14.69977 | 37231 ft | 471 kts | 155° |
| 2026-04-29 11:22 | 47.23647 | 14.74580 | 37208 ft | 473 kts | 156° |
| 2026-04-29 11:22 | 47.17837 | 14.79196 | 37210 ft | 475 kts | 156° |
| 2026-04-29 11:23 | 47.12002 | 14.83821 | 37212 ft | 478 kts | 156° |
| 2026-04-29 11:23 | 47.06179 | 14.88426 | 37214 ft | 480 kts | 156° |
| 2026-04-29 11:24 | 47.00297 | 14.93065 | 37234 ft | 480 kts | 156° |
| 2026-04-29 11:24 | 46.94400 | 14.97704 | 37225 ft | 482 kts | 156° |
| 2026-04-29 11:25 | 46.88492 | 15.02341 | 37227 ft | 482 kts | 156° |
| 2026-04-29 11:25 | 46.82582 | 15.06969 | 37234 ft | 482 kts | 156° |
| 2026-04-29 11:26 | 46.73722 | 15.13884 | 37231 ft | 481 kts | 156° |
| 2026-04-29 11:26 | 46.67826 | 15.18472 | 37233 ft | 480 kts | 156° |
| 2026-04-29 11:27 | 46.61802 | 15.22497 | 37245 ft | 471 kts | 167° |
| 2026-04-29 11:27 | 46.55569 | 15.25370 | 37223 ft | 469 kts | 168° |
| 2026-04-29 11:28 | 46.49345 | 15.28160 | 37231 ft | 468 kts | 168° |
| 2026-04-29 11:28 | 46.43143 | 15.31000 | 37239 ft | 467 kts | 168° |
| 2026-04-29 11:29 | 46.36951 | 15.33875 | 37239 ft | 467 kts | 168° |
| 2026-04-29 11:29 | 46.30762 | 15.36757 | 37228 ft | 467 kts | 168° |
| 2026-04-29 11:30 | 46.25618 | 15.39147 | 37241 ft | 468 kts | 168° |
| 2026-04-29 11:30 | 46.19422 | 15.42017 | 37232 ft | 468 kts | 168° |
| 2026-04-29 11:31 | 46.13223 | 15.44882 | 37249 ft | 468 kts | 168° |
| 2026-04-29 11:31 | 46.07024 | 15.47739 | 37235 ft | 468 kts | 168° |
| 2026-04-29 11:32 | 46.00814 | 15.50594 | 37250 ft | 469 kts | 168° |
| 2026-04-29 11:32 | 45.94593 | 15.53446 | 37238 ft | 470 kts | 168° |
| 2026-04-29 11:33 | 45.88360 | 15.56299 | 37213 ft | 470 kts | 168° |
| 2026-04-29 11:33 | 45.82132 | 15.59143 | 37224 ft | 470 kts | 168° |
| 2026-04-29 11:34 | 45.75909 | 15.61978 | 37232 ft | 469 kts | 168° |
| 2026-04-29 11:34 | 45.69700 | 15.64800 | 37237 ft | 468 kts | 168° |
| 2026-04-29 11:35 | 45.63492 | 15.67614 | 37223 ft | 468 kts | 168° |
| 2026-04-29 11:35 | 45.57286 | 15.70421 | 37226 ft | 468 kts | 168° |
| 2026-04-29 11:36 | 45.51078 | 15.73222 | 37222 ft | 467 kts | 168° |
| 2026-04-29 11:36 | 45.44880 | 15.76013 | 37206 ft | 467 kts | 168° |
| 2026-04-29 11:37 | 45.38716 | 15.78780 | 37225 ft | 468 kts | 168° |
| 2026-04-29 11:37 | 45.32503 | 15.81564 | 37206 ft | 468 kts | 168° |
| 2026-04-29 11:38 | 45.26291 | 15.84343 | 37217 ft | 467 kts | 168° |
| 2026-04-29 11:38 | 45.20097 | 15.87107 | 37209 ft | 466 kts | 168° |
| 2026-04-29 11:39 | 45.13913 | 15.89859 | 37213 ft | 466 kts | 168° |
| 2026-04-29 11:39 | 45.07730 | 15.92604 | 37226 ft | 466 kts | 168° |
| 2026-04-29 11:40 | 45.01540 | 15.95346 | 37205 ft | 466 kts | 168° |
| 2026-04-29 11:40 | 44.95345 | 15.98084 | 37195 ft | 466 kts | 168° |
| 2026-04-29 11:41 | 44.89151 | 16.00816 | 37197 ft | 467 kts | 168° |
| 2026-04-29 11:41 | 44.82950 | 16.03545 | 37147 ft | 467 kts | 168° |
| 2026-04-29 11:42 | 44.76758 | 16.06264 | 37165 ft | 466 kts | 168° |
| 2026-04-29 11:42 | 44.70566 | 16.08976 | 37173 ft | 466 kts | 168° |
| 2026-04-29 11:43 | 44.64362 | 16.11687 | 37165 ft | 467 kts | 168° |
| 2026-04-29 11:43 | 44.58157 | 16.14394 | 37146 ft | 467 kts | 168° |
| 2026-04-29 11:44 | 44.51953 | 16.17094 | 37130 ft | 466 kts | 168° |
| 2026-04-29 11:44 | 44.45762 | 16.19782 | 37138 ft | 466 kts | 168° |
| 2026-04-29 11:45 | 44.39571 | 16.22464 | 37109 ft | 466 kts | 168° |
| 2026-04-29 11:45 | 44.33388 | 16.25136 | 37107 ft | 465 kts | 168° |
| 2026-04-29 11:46 | 44.27204 | 16.27804 | 37088 ft | 465 kts | 168° |
| 2026-04-29 11:46 | 44.21071 | 16.30443 | 37091 ft | 464 kts | 168° |
| 2026-04-29 11:47 | 44.14910 | 16.33089 | 37085 ft | 463 kts | 168° |
| 2026-04-29 11:47 | 44.08752 | 16.35727 | 37079 ft | 463 kts | 168° |
| 2026-04-29 11:48 | 44.02598 | 16.38357 | 37073 ft | 463 kts | 168° |
| 2026-04-29 11:48 | 43.96432 | 16.40988 | 37067 ft | 462 kts | 168° |
| 2026-04-29 11:49 | 43.90289 | 16.43604 | 37069 ft | 462 kts | 168° |
| 2026-04-29 11:49 | 43.84146 | 16.46213 | 37066 ft | 461 kts | 168° |
| 2026-04-29 11:50 | 43.78012 | 16.48813 | 37039 ft | 461 kts | 168° |
| 2026-04-29 11:50 | 43.71894 | 16.51401 | 37066 ft | 460 kts | 168° |
| 2026-04-29 11:51 | 43.65777 | 16.53982 | 37059 ft | 459 kts | 168° |
| 2026-04-29 11:51 | 43.59665 | 16.56556 | 37060 ft | 459 kts | 168° |
| 2026-04-29 11:52 | 43.53554 | 16.59124 | 37083 ft | 459 kts | 168° |
| 2026-04-29 11:52 | 43.47443 | 16.61686 | 37086 ft | 460 kts | 168° |
| 2026-04-29 11:53 | 43.41324 | 16.64246 | 37096 ft | 460 kts | 168° |
| 2026-04-29 11:53 | 43.35205 | 16.66802 | 37104 ft | 459 kts | 168° |
| 2026-04-29 11:54 | 43.29093 | 16.69349 | 37104 ft | 459 kts | 168° |
| 2026-04-29 11:54 | 43.22978 | 16.71892 | 37120 ft | 459 kts | 168° |
| 2026-04-29 11:55 | 43.16865 | 16.74429 | 37086 ft | 459 kts | 168° |
| 2026-04-29 11:55 | 43.10788 | 16.76944 | 36757 ft | 461 kts | 168° |
| 2026-04-29 11:56 | 43.07741 | 16.78205 | 36466 ft | 454 kts | 168° |
| 2026-04-29 11:56 | 43.04728 | 16.79453 | 36069 ft | 450 kts | 168° |
| 2026-04-29 11:56 | 43.01744 | 16.80687 | 35696 ft | 446 kts | 168° |
| 2026-04-29 11:56 | 42.98784 | 16.81908 | 35304 ft | 443 kts | 168° |
| 2026-04-29 11:57 | 42.95847 | 16.83117 | 34914 ft | 439 kts | 168° |
| 2026-04-29 11:57 | 42.92928 | 16.84318 | 34555 ft | 437 kts | 168° |
| 2026-04-29 11:57 | 42.90030 | 16.85508 | 34166 ft | 434 kts | 168° |
| 2026-04-29 11:57 | 42.87145 | 16.86692 | 33752 ft | 431 kts | 168° |
| 2026-04-29 11:58 | 42.84285 | 16.87865 | 33343 ft | 428 kts | 168° |
| 2026-04-29 11:58 | 42.81440 | 16.89030 | 32947 ft | 425 kts | 168° |
| 2026-04-29 11:58 | 42.78620 | 16.90185 | 32578 ft | 422 kts | 168° |
| 2026-04-29 11:58 | 42.75824 | 16.91328 | 32199 ft | 419 kts | 168° |
| 2026-04-29 11:59 | 42.73043 | 16.92464 | 31862 ft | 415 kts | 168° |
| 2026-04-29 11:59 | 42.70287 | 16.93589 | 31494 ft | 412 kts | 168° |
| 2026-04-29 11:59 | 42.67557 | 16.94703 | 31152 ft | 409 kts | 168° |
| 2026-04-29 11:59 | 42.64832 | 16.95813 | 30791 ft | 407 kts | 168° |
| 2026-04-29 12:00 | 42.62131 | 16.96912 | 30447 ft | 404 kts | 168° |
| 2026-04-29 12:00 | 42.59443 | 16.98005 | 30096 ft | 402 kts | 168° |
| 2026-04-29 12:00 | 42.56774 | 16.99089 | 29691 ft | 399 kts | 168° |
| 2026-04-29 12:00 | 42.54125 | 17.00165 | 29294 ft | 396 kts | 167° |
| 2026-04-29 12:01 | 42.51495 | 17.01232 | 28957 ft | 392 kts | 167° |
| 2026-04-29 12:01 | 42.48893 | 17.02287 | 28557 ft | 389 kts | 168° |
| 2026-04-29 12:01 | 42.46309 | 17.03333 | 28223 ft | 386 kts | 168° |
| 2026-04-29 12:01 | 42.43751 | 17.04368 | 27859 ft | 383 kts | 168° |
| 2026-04-29 12:02 | 42.41205 | 17.05398 | 27505 ft | 380 kts | 168° |
| 2026-04-29 12:02 | 42.38679 | 17.06417 | 27153 ft | 378 kts | 168° |
| 2026-04-29 12:02 | 42.36152 | 17.07328 | 26741 ft | 373 kts | 175° |
| 2026-04-29 12:02 | 42.33586 | 17.07530 | 26240 ft | 367 kts | 189° |
| 2026-04-29 12:03 | 42.31069 | 17.07116 | 25871 ft | 363 kts | 193° |
| 2026-04-29 12:03 | 42.28608 | 17.06655 | 25537 ft | 360 kts | 193° |
| 2026-04-29 12:03 | 42.26132 | 17.06191 | 25198 ft | 358 kts | 193° |
| 2026-04-29 12:03 | 42.23670 | 17.05738 | 24850 ft | 357 kts | 192° |
| 2026-04-29 12:04 | 42.21212 | 17.05293 | 24508 ft | 355 kts | 192° |
| 2026-04-29 12:04 | 42.18769 | 17.04859 | 24167 ft | 353 kts | 192° |
| 2026-04-29 12:04 | 42.16340 | 17.04432 | 23859 ft | 351 kts | 192° |
| 2026-04-29 12:04 | 42.13928 | 17.04010 | 23523 ft | 349 kts | 192° |
| 2026-04-29 12:05 | 42.11531 | 17.03593 | 23165 ft | 346 kts | 192° |
| 2026-04-29 12:05 | 42.09149 | 17.03180 | 22801 ft | 344 kts | 192° |
| 2026-04-29 12:05 | 42.06784 | 17.02769 | 22432 ft | 342 kts | 192° |
| 2026-04-29 12:05 | 42.04432 | 17.02362 | 22074 ft | 340 kts | 192° |
| 2026-04-29 12:06 | 42.02092 | 17.01957 | 21724 ft | 338 kts | 192° |
| 2026-04-29 12:06 | 41.99764 | 17.01554 | 21383 ft | 336 kts | 192° |
| 2026-04-29 12:06 | 41.97450 | 17.01154 | 21038 ft | 334 kts | 192° |
| 2026-04-29 12:06 | 41.95148 | 17.00757 | 20691 ft | 333 kts | 192° |
| 2026-04-29 12:07 | 41.92857 | 17.00361 | 20361 ft | 331 kts | 191° |
| 2026-04-29 12:07 | 41.90582 | 16.99969 | 20037 ft | 329 kts | 191° |
| 2026-04-29 12:07 | 41.88322 | 16.99580 | 19720 ft | 327 kts | 191° |
| 2026-04-29 12:07 | 41.86068 | 16.99192 | 19400 ft | 326 kts | 191° |
| 2026-04-29 12:08 | 41.83826 | 16.98806 | 19084 ft | 324 kts | 191° |
| 2026-04-29 12:08 | 41.81596 | 16.98422 | 18769 ft | 323 kts | 191° |
| 2026-04-29 12:08 | 41.79375 | 16.98041 | 18468 ft | 321 kts | 191° |
| 2026-04-29 12:08 | 41.77163 | 16.97661 | 18127 ft | 320 kts | 191° |
| 2026-04-29 12:09 | 41.74961 | 16.97283 | 17774 ft | 318 kts | 191° |
| 2026-04-29 12:09 | 41.72774 | 16.96908 | 17425 ft | 317 kts | 190° |
| 2026-04-29 12:09 | 41.70592 | 16.96534 | 17089 ft | 315 kts | 190° |
| 2026-04-29 12:09 | 41.68421 | 16.96163 | 16753 ft | 314 kts | 190° |
| 2026-04-29 12:10 | 41.66286 | 16.95797 | 16427 ft | 313 kts | 190° |
| 2026-04-29 12:10 | 41.64134 | 16.95429 | 16087 ft | 311 kts | 190° |
| 2026-04-29 12:10 | 41.61989 | 16.95063 | 15780 ft | 310 kts | 190° |
| 2026-04-29 12:10 | 41.59857 | 16.94698 | 15460 ft | 309 kts | 190° |
| 2026-04-29 12:11 | 41.57728 | 16.94335 | 15145 ft | 308 kts | 190° |
| 2026-04-29 12:11 | 41.55608 | 16.93974 | 14836 ft | 306 kts | 189° |
| 2026-04-29 12:11 | 41.53497 | 16.93614 | 14530 ft | 305 kts | 190° |
| 2026-04-29 12:11 | 41.51441 | 16.93002 | 14216 ft | 302 kts | 201° |
| 2026-04-29 12:12 | 41.49477 | 16.92040 | 13921 ft | 300 kts | 204° |
| 2026-04-29 12:12 | 41.47542 | 16.91014 | 13590 ft | 299 kts | 204° |
| 2026-04-29 12:12 | 41.45612 | 16.89994 | 13267 ft | 297 kts | 203° |
| 2026-04-29 12:12 | 41.43689 | 16.88998 | 12943 ft | 296 kts | 203° |
| 2026-04-29 12:13 | 41.41770 | 16.88021 | 12639 ft | 294 kts | 202° |
| 2026-04-29 12:13 | 41.39860 | 16.87059 | 12327 ft | 293 kts | 202° |
| 2026-04-29 12:13 | 41.37956 | 16.86109 | 12024 ft | 292 kts | 202° |
| 2026-04-29 12:13 | 41.36064 | 16.85168 | 11717 ft | 290 kts | 202° |
| 2026-04-29 12:14 | 41.34177 | 16.84232 | 11417 ft | 289 kts | 202° |
| 2026-04-29 12:14 | 41.32296 | 16.83301 | 11114 ft | 288 kts | 202° |
| 2026-04-29 12:14 | 41.30428 | 16.82363 | 10851 ft | 285 kts | 206° |
| 2026-04-29 12:14 | 41.28861 | 16.80839 | 10569 ft | 279 kts | 231° |
| 2026-04-29 12:15 | 41.27786 | 16.78733 | 10364 ft | 273 kts | 240° |
| 2026-04-29 12:15 | 41.26837 | 16.76559 | 10105 ft | 271 kts | 241° |
| 2026-04-29 12:15 | 41.25900 | 16.74382 | 9789 ft | 272 kts | 241° |
| 2026-04-29 12:15 | 41.24960 | 16.72217 | 9497 ft | 270 kts | 240° |
| 2026-04-29 12:16 | 41.24014 | 16.70062 | 9216 ft | 269 kts | 240° |
| 2026-04-29 12:16 | 41.23070 | 16.67931 | 8958 ft | 266 kts | 240° |
| 2026-04-29 12:16 | 41.22132 | 16.65820 | 8680 ft | 265 kts | 240° |
| 2026-04-29 12:16 | 41.21200 | 16.63729 | 8480 ft | 260 kts | 240° |
| 2026-04-29 12:17 | 41.20365 | 16.61645 | 8322 ft | 253 kts | 248° |
| 2026-04-29 12:17 | 41.19740 | 16.59477 | 8108 ft | 250 kts | 250° |
| 2026-04-29 12:17 | 41.19158 | 16.57335 | 7876 ft | 249 kts | 250° |
| 2026-04-29 12:17 | 41.18569 | 16.55176 | 7611 ft | 248 kts | 250° |
| 2026-04-29 12:18 | 41.17975 | 16.53035 | 7362 ft | 247 kts | 249° |
| 2026-04-29 12:18 | 41.17374 | 16.50902 | 7081 ft | 247 kts | 249° |
| 2026-04-29 12:18 | 41.16776 | 16.48777 | 6852 ft | 245 kts | 249° |
| 2026-04-29 12:18 | 41.16175 | 16.46671 | 6625 ft | 243 kts | 248° |
| 2026-04-29 12:19 | 41.15578 | 16.44588 | 6402 ft | 241 kts | 248° |
| 2026-04-29 12:19 | 41.14978 | 16.42496 | 6088 ft | 244 kts | 248° |
| 2026-04-29 12:19 | 41.14381 | 16.40409 | 5940 ft | 241 kts | 248° |
| 2026-04-29 12:19 | 41.13789 | 16.38333 | 5840 ft | 240 kts | 248° |
| 2026-04-29 12:20 | 41.13391 | 16.36937 | 5790 ft | 240 kts | 248° |
| 2026-04-29 12:20 | 41.12797 | 16.34859 | 5694 ft | 242 kts | 248° |
| 2026-04-29 12:20 | 41.12197 | 16.32766 | 5561 ft | 245 kts | 249° |
| 2026-04-29 12:20 | 41.11585 | 16.30638 | 5334 ft | 246 kts | 248° |
| 2026-04-29 12:21 | 41.10977 | 16.28524 | 5093 ft | 243 kts | 248° |
| 2026-04-29 12:21 | 41.10379 | 16.26441 | 4848 ft | 241 kts | 248° |
| 2026-04-29 12:21 | 41.09706 | 16.24435 | 4569 ft | 241 kts | 234° |
| 2026-04-29 12:21 | 41.08413 | 16.23046 | 4314 ft | 239 kts | 201° |
| 2026-04-29 12:22 | 41.06783 | 16.22729 | 4130 ft | 235 kts | 175° |
| 2026-04-29 12:22 | 41.05240 | 16.23237 | 3957 ft | 229 kts | 161° |
| 2026-04-29 12:22 | 41.03773 | 16.23974 | 3779 ft | 222 kts | 160° |
| 2026-04-29 12:22 | 41.02356 | 16.24707 | 3585 ft | 215 kts | 159° |
| 2026-04-29 12:23 | 41.01070 | 16.25680 | 3416 ft | 210 kts | 131° |
| 2026-04-29 12:23 | 41.00572 | 16.27410 | 3329 ft | 208 kts | 87° |
| 2026-04-29 12:23 | 41.00918 | 16.29263 | 3338 ft | 210 kts | 73° |
| 2026-04-29 12:23 | 41.01359 | 16.31132 | 3326 ft | 215 kts | 73° |
| 2026-04-29 12:24 | 41.01834 | 16.33013 | 3294 ft | 215 kts | 71° |
| 2026-04-29 12:24 | 41.02332 | 16.34878 | 3260 ft | 214 kts | 71° |
| 2026-04-29 12:24 | 41.02843 | 16.36739 | 3241 ft | 216 kts | 72° |
| 2026-04-29 12:24 | 41.03364 | 16.38616 | 3215 ft | 217 kts | 71° |
| 2026-04-29 12:25 | 41.03881 | 16.40481 | 3187 ft | 215 kts | 71° |
| 2026-04-29 12:25 | 41.04400 | 16.42337 | 3128 ft | 216 kts | 71° |
| 2026-04-29 12:25 | 41.05446 | 16.46093 | 2984 ft | 216 kts | 71° |
| 2026-04-29 12:26 | 41.05959 | 16.47931 | 2980 ft | 208 kts | 71° |
| 2026-04-29 12:26 | 41.06451 | 16.49683 | 2959 ft | 198 kts | 71° |
| 2026-04-29 12:26 | 41.06923 | 16.51376 | 2988 ft | 197 kts | 72° |
| 2026-04-29 12:26 | 41.07402 | 16.53092 | 2977 ft | 198 kts | 71° |
| 2026-04-29 12:27 | 41.07879 | 16.54801 | 2975 ft | 196 kts | 71° |
| 2026-04-29 12:27 | 41.08355 | 16.56497 | 2898 ft | 199 kts | 71° |
| 2026-04-29 12:27 | 41.08836 | 16.58219 | 2669 ft | 199 kts | 71° |
| 2026-04-29 12:27 | 41.09314 | 16.59920 | 2428 ft | 195 kts | 71° |
| 2026-04-29 12:28 | 41.09780 | 16.61592 | 2165 ft | 191 kts | 70° |
| 2026-04-29 12:28 | 41.10234 | 16.63205 | 1935 ft | 182 kts | 70° |
| 2026-04-29 12:28 | 41.10673 | 16.64763 | 1684 ft | 179 kts | 70° |
| 2026-04-29 12:28 | 41.11091 | 16.66259 | 1465 ft | 166 kts | 69° |
| 2026-04-29 12:29 | 41.11473 | 16.67616 | 1303 ft | 150 kts | 69° |
| 2026-04-29 12:29 | 41.11824 | 16.68866 | 1092 ft | 143 kts | 68° |
| 2026-04-29 12:29 | 41.12167 | 16.70087 | 886 ft | 140 kts | 69° |
| 2026-04-29 12:29 | 41.12520 | 16.71279 | 681 ft | 138 kts | 69° |
| 2026-04-29 12:30 | 41.12853 | 16.72467 | 469 ft | 137 kts | 70° |
| 2026-04-29 12:30 | 41.13174 | 16.73662 | 283 ft | 137 kts | 69° |
| 2026-04-29 12:30 | 41.13500 | 16.74819 | 149 ft | 129 kts | 70° |
| 2026-04-29 12:30 | 41.13782 | 16.75824 | 136 ft | 100 kts | 70° |
| 2026-04-29 12:31 | 41.13966 | 16.76461 | 124 ft | 31 kts | 71° |
| 2026-04-29 12:31 | 41.13991 | 16.76661 | 124 ft | 18 kts | 107° |
| 2026-04-29 12:31 | 41.13936 | 16.76716 | 122 ft | 7 kts | 205° |
| 2026-04-29 12:31 | 41.13904 | 16.76685 | 125 ft | 6 kts | 214° |
| 2026-04-29 12:32 | 41.13870 | 16.76655 | 125 ft | 6 kts | 215° |
| 2026-04-29 12:32 | 41.13838 | 16.76624 | 132 ft | 6 kts | 220° |
| 2026-04-29 12:32 | 41.13813 | 16.76584 | 133 ft | 6 kts | 239° |
| 2026-04-29 12:32 | 41.13785 | 16.76550 | 134 ft | 5 kts | 201° |
| 2026-04-29 12:33 | 41.13751 | 16.76562 | 135 ft | 5 kts | 154° |
| 2026-04-29 12:33 | 41.13734 | 16.76568 | 135 ft | 2 kts | 175° |
| 2026-04-29 12:33 | 41.13708 | 16.76555 | 135 ft | 8 kts | 205° |
| 2026-04-29 12:33 | 41.13652 | 16.76507 | 135 ft | 9 kts | 230° |
| 2026-04-29 12:34 | 41.13629 | 16.76433 | 135 ft | 9 kts | 251° |
| 2026-04-29 12:34 | 41.13612 | 16.76380 | 135 ft | 4 kts | 229° |
| 2026-04-29 12:34 | 41.13582 | 16.76380 | 135 ft | 5 kts | 156° |
| 2026-04-29 12:34 | 41.13559 | 16.76392 | 135 ft | 3 kts | 159° |
| 2026-04-29 12:35 | 41.13548 | 16.76398 | 135 ft | 1 kts | 159° |
| 2026-04-29 12:35 | 41.13544 | 16.76400 | 135 ft | 0 kts | 159° |